createdAt,value
2019-03-02T00:01:32.675Z,7.60
2019-03-02T00:04:01.874Z,6.87
2019-03-02T00:06:32.790Z,6.70
2019-03-02T00:09:01.464Z,6.80
2019-03-02T00:11:29.967Z,5.60
2019-03-02T00:13:58.475Z,5.90
2019-03-02T00:16:26.979Z,5.53
2019-03-02T00:18:55.603Z,5.90
2019-03-02T00:21:32.570Z,6.00
2019-03-02T00:24:01.274Z,4.87
2019-03-02T00:26:30.189Z,5.00
2019-03-02T00:28:58.776Z,5.20
2019-03-02T00:31:29.854Z,4.00
2019-03-02T00:33:57.954Z,4.17
2019-03-02T00:36:26.717Z,3.43
2019-03-02T00:38:55.801Z,3.40
2019-03-02T00:41:24.344Z,3.37
2019-03-02T00:43:52.758Z,3.37
2019-03-02T00:46:23.970Z,4.17
2019-03-02T00:48:51.533Z,3.60
2019-03-02T00:51:31.172Z,3.07
2019-03-02T00:54:00.667Z,3.33
2019-03-02T00:56:29.187Z,3.30
2019-03-02T00:59:00.615Z,3.33
2019-03-02T01:01:28.729Z,3.93
2019-03-02T01:03:58.648Z,3.43
2019-03-02T01:06:27.048Z,2.67
2019-03-02T01:08:56.870Z,3.70
2019-03-02T01:11:25.269Z,3.03
2019-03-02T01:13:56.796Z,3.67
2019-03-02T01:16:24.241Z,2.40
2019-03-02T01:18:52.750Z,2.90
2019-03-02T01:21:22.844Z,2.97
2019-03-02T01:23:51.433Z,2.83
2019-03-02T01:26:23.866Z,3.50
2019-03-02T01:28:51.948Z,4.50
2019-03-02T01:31:20.460Z,5.77
2019-03-02T01:33:49.153Z,4.70
2019-03-02T01:36:17.663Z,3.07
2019-03-02T01:38:46.158Z,3.43
2019-03-02T01:41:17.797Z,3.57
2019-03-02T01:43:46.412Z,4.10
2019-03-02T01:46:14.914Z,3.77
2019-03-02T01:48:43.336Z,2.70
2019-03-02T01:51:12.446Z,3.60
2019-03-02T01:53:41.873Z,4.63
2019-03-02T01:56:11.544Z,5.47
2019-03-02T01:58:40.056Z,3.50
2019-03-02T02:01:09.807Z,3.83
2019-03-02T02:03:38.220Z,3.63
2019-03-02T02:06:07.366Z,3.50
2019-03-02T02:08:38.556Z,4.70
2019-03-02T02:11:07.452Z,5.20
2019-03-02T02:13:38.882Z,4.97
2019-03-02T02:16:06.867Z,5.60
2019-03-02T02:18:35.342Z,5.40
2019-03-02T02:21:03.864Z,4.53
2019-03-02T02:23:32.470Z,5.13
2019-03-02T02:26:01.619Z,6.07
2019-03-02T02:28:32.295Z,5.70
2019-03-02T02:31:06.113Z,5.60
2019-03-02T02:33:32.537Z,5.60
2019-03-02T02:36:01.126Z,5.70
2019-03-02T02:38:29.628Z,6.80
2019-03-02T02:40:58.045Z,6.20
2019-03-02T02:43:26.460Z,6.17
2019-03-02T02:45:55.325Z,5.73
2019-03-02T02:48:26.420Z,7.10
2019-03-02T02:50:54.273Z,5.90
2019-03-02T02:53:22.866Z,5.53
2019-03-02T02:55:51.490Z,6.53
2019-03-02T02:58:20.210Z,6.60
2019-03-02T03:00:50.025Z,5.70
2019-03-02T03:03:20.719Z,5.30
2019-03-02T03:05:54.241Z,6.13
2019-03-02T03:08:37.951Z,5.60
2019-03-02T03:11:06.865Z,4.53
2019-03-02T03:13:40.776Z,5.20
2019-03-02T03:16:11.598Z,6.27
2019-03-02T03:18:38.975Z,5.50
2019-03-02T03:21:09.315Z,5.30
2019-03-02T03:23:37.832Z,5.33
2019-03-02T03:26:07.067Z,5.10
2019-03-02T03:28:35.471Z,4.90
2019-03-02T03:31:03.879Z,5.30
2019-03-02T03:33:41.417Z,5.10
2019-03-02T03:36:02.805Z,4.07
2019-03-02T03:38:31.326Z,5.13
2019-03-02T03:41:05.078Z,4.33
2019-03-02T03:43:30.530Z,4.97
2019-03-02T03:45:59.038Z,4.17
2019-03-02T03:48:27.968Z,4.43
2019-03-02T03:50:56.382Z,4.57
2019-03-02T03:53:26.631Z,4.70
2019-03-02T03:56:03.443Z,4.87
2019-03-02T03:58:25.918Z,3.47
2019-03-02T04:00:56.131Z,4.60
2019-03-02T04:03:24.619Z,4.80
2019-03-02T04:05:53.133Z,4.10
2019-03-02T04:08:24.229Z,4.90
2019-03-02T04:10:52.128Z,4.80
2019-03-02T04:13:20.858Z,5.17
2019-03-02T04:15:49.280Z,5.13
2019-03-02T04:18:55.097Z,4.20
2019-03-02T04:21:29.821Z,4.70
2019-03-02T04:24:02.807Z,4.27
2019-03-02T04:26:35.958Z,3.50
2019-03-02T04:29:09.095Z,3.90
2019-03-02T04:31:33.694Z,3.97
2019-03-02T04:34:02.101Z,3.30
2019-03-02T04:36:30.520Z,3.30
2019-03-02T04:38:59.018Z,3.83
2019-03-02T04:41:27.427Z,3.20
2019-03-02T04:43:55.946Z,3.77
2019-03-02T04:46:24.434Z,3.23
2019-03-02T04:48:54.650Z,3.67
2019-03-02T04:51:28.003Z,3.23
2019-03-02T04:53:58.161Z,3.70
2019-03-02T04:56:27.360Z,2.93
2019-03-02T04:58:55.766Z,3.30
2019-03-02T05:01:24.263Z,3.60
2019-03-02T05:03:53.774Z,4.03
2019-03-02T05:06:23.359Z,3.90
2019-03-02T05:08:51.753Z,4.27
2019-03-02T05:11:20.180Z,4.03
2019-03-02T05:13:48.605Z,3.37
2019-03-02T05:16:17.025Z,3.60
2019-03-02T05:18:45.510Z,3.97
2019-03-02T05:21:13.952Z,3.87
2019-03-02T05:23:42.354Z,5.93
2019-03-02T05:26:11.641Z,6.70
2019-03-02T05:28:43.002Z,7.10
2019-03-02T05:31:13.859Z,7.77
2019-03-02T05:33:42.883Z,8.23
2019-03-02T05:36:11.687Z,7.30
2019-03-02T05:38:40.207Z,8.13
2019-03-02T05:41:10.389Z,7.07
2019-03-02T05:43:39.089Z,7.40
2019-03-02T05:46:07.815Z,6.93
2019-03-02T05:48:39.081Z,6.53
2019-03-02T05:51:06.931Z,7.90
2019-03-02T05:53:36.265Z,9.20
2019-03-02T05:56:04.774Z,6.07
2019-03-02T05:58:33.287Z,7.17
2019-03-02T06:01:01.811Z,6.83
2019-03-02T06:03:30.229Z,6.43
2019-03-02T06:05:58.645Z,6.33
2019-03-02T06:08:27.395Z,5.43
2019-03-02T06:10:58.030Z,7.03
2019-03-02T06:13:28.399Z,6.27
2019-03-02T06:15:56.811Z,6.40
2019-03-02T06:18:25.260Z,5.73
2019-03-02T06:20:53.688Z,5.50
2019-03-02T06:23:22.163Z,6.33
2019-03-02T06:25:55.114Z,5.50
2019-03-02T06:28:23.066Z,5.90
2019-03-02T06:30:53.152Z,5.40
2019-03-02T06:33:40.667Z,5.60
2019-03-02T06:36:08.936Z,5.70
2019-03-02T06:38:38.618Z,5.77
2019-03-02T06:41:07.244Z,5.87
2019-03-02T06:43:35.954Z,5.40
2019-03-02T06:46:06.179Z,7.87
2019-03-02T06:48:34.625Z,5.77
2019-03-02T06:51:03.261Z,6.63
2019-03-02T06:53:34.029Z,5.80
2019-03-02T06:56:03.872Z,5.53
2019-03-02T06:58:34.051Z,6.00
2019-03-02T07:01:02.689Z,5.60
2019-03-02T07:03:31.286Z,6.10
2019-03-02T07:05:59.826Z,7.40
2019-03-02T07:08:32.770Z,9.93
2019-03-02T07:11:00.426Z,8.10
2019-03-02T07:13:29.932Z,8.80
2019-03-02T07:15:58.763Z,7.83
2019-03-02T07:18:32.906Z,7.57
2019-03-02T07:21:03.271Z,6.93
2019-03-02T07:23:32.342Z,6.00
2019-03-02T07:26:02.605Z,5.57
2019-03-02T07:28:31.377Z,4.93
2019-03-02T07:31:00.178Z,3.93
2019-03-02T07:33:28.664Z,4.10
2019-03-02T07:35:57.475Z,3.60
2019-03-02T07:38:25.970Z,3.33
2019-03-02T07:40:54.669Z,3.80
2019-03-02T07:43:23.085Z,4.17
2019-03-02T07:45:53.663Z,5.47
2019-03-02T07:48:22.422Z,3.80
2019-03-02T07:50:51.163Z,4.30
2019-03-02T07:53:20.384Z,4.00
2019-03-02T07:55:49.259Z,5.50
2019-03-02T07:58:19.679Z,4.37
2019-03-02T08:00:48.744Z,3.70
2019-03-02T08:03:17.314Z,4.70
2019-03-02T08:05:46.919Z,5.17
2019-03-02T08:08:16.511Z,4.70
2019-03-02T08:10:45.175Z,4.50
2019-03-02T08:13:13.790Z,3.70
2019-03-02T08:15:42.208Z,3.80
2019-03-02T08:18:10.659Z,3.70
2019-03-02T08:20:39.159Z,4.73
2019-03-02T08:23:07.643Z,5.43
2019-03-02T08:25:36.145Z,4.37
2019-03-02T08:28:09.602Z,4.27
2019-03-02T08:30:37.260Z,6.00
2019-03-02T08:33:06.205Z,5.17
2019-03-02T08:35:36.034Z,4.40
2019-03-02T08:38:05.422Z,4.93
2019-03-02T08:40:34.932Z,4.13
2019-03-02T08:43:03.767Z,3.97
2019-03-02T08:45:32.311Z,4.80
2019-03-02T08:48:00.710Z,5.47
2019-03-02T08:50:30.326Z,4.60
2019-03-02T08:52:59.661Z,4.60
2019-03-02T08:55:29.838Z,4.87
2019-03-02T08:57:58.848Z,4.03
2019-03-02T09:00:27.344Z,4.23
2019-03-02T09:02:58.952Z,4.70
2019-03-02T09:05:42.789Z,3.90
2019-03-02T09:07:56.646Z,5.23
2019-03-02T09:10:25.332Z,5.40
2019-03-02T09:12:57.935Z,5.30
2019-03-02T09:15:26.291Z,5.00
2019-03-02T09:17:57.681Z,5.37
2019-03-02T09:20:26.721Z,4.37
2019-03-02T09:22:56.567Z,5.13
2019-03-02T09:25:28.032Z,5.10
2019-03-02T09:27:56.049Z,5.43
2019-03-02T09:30:26.570Z,4.83
2019-03-02T09:32:55.692Z,5.20
2019-03-02T09:35:24.197Z,5.90
2019-03-02T09:37:52.723Z,6.20
2019-03-02T09:40:21.147Z,4.63
2019-03-02T09:42:49.663Z,4.93
2019-03-02T09:45:18.805Z,5.23
2019-03-02T09:47:48.973Z,6.23
2019-03-02T09:50:18.096Z,5.70
2019-03-02T09:52:46.493Z,5.43
2019-03-02T09:55:18.397Z,4.03
2019-03-02T09:57:49.273Z,6.73
2019-03-02T10:00:23.708Z,5.27
2019-03-02T10:02:53.378Z,5.30
2019-03-02T10:05:21.905Z,6.70
2019-03-02T10:07:50.887Z,5.60
2019-03-02T10:10:19.721Z,5.80
2019-03-02T10:12:51.727Z,5.37
2019-03-02T10:15:21.183Z,5.90
2019-03-02T10:17:49.962Z,5.67
2019-03-02T10:20:18.647Z,7.57
2019-03-02T10:22:47.110Z,6.80
2019-03-02T10:25:16.846Z,6.67
2019-03-02T10:27:46.874Z,6.93
2019-03-02T10:30:17.449Z,6.80
2019-03-02T10:32:45.942Z,6.43
2019-03-02T10:35:17.174Z,6.57
2019-03-02T10:37:45.744Z,6.00
2019-03-02T10:40:15.252Z,5.67
2019-03-02T10:42:43.672Z,5.20
2019-03-02T10:45:14.840Z,5.53
2019-03-02T10:47:43.598Z,8.30
2019-03-02T10:50:15.361Z,6.53
2019-03-02T10:52:48.906Z,7.70
2019-03-02T10:55:19.197Z,7.90
2019-03-02T10:57:48.014Z,8.47
2019-03-02T11:00:25.635Z,7.00
2019-03-02T11:02:56.059Z,6.70
2019-03-02T11:05:44.197Z,6.73
2019-03-02T11:08:32.473Z,7.50
2019-03-02T11:11:10.318Z,6.97
2019-03-02T11:13:51.914Z,8.33
2019-03-02T11:16:37.409Z,7.57
2019-03-02T11:19:24.296Z,7.80
2019-03-02T11:22:16.641Z,8.40
2019-03-02T11:25:17.110Z,7.40
2019-03-02T11:28:04.162Z,7.67
2019-03-02T11:30:58.322Z,7.67
2019-03-02T11:33:46.732Z,7.30
2019-03-02T11:36:38.224Z,7.20
2019-03-02T11:39:43.789Z,8.20
2019-03-02T11:42:20.107Z,7.20
2019-03-02T11:45:14.590Z,8.10
2019-03-02T11:48:23.035Z,8.10
2019-03-02T11:51:15.592Z,5.90
2019-03-02T11:54:04.203Z,7.00
2019-03-02T11:57:01.464Z,7.57
2019-03-02T11:59:55.598Z,6.17
2019-03-02T12:02:49.833Z,6.80
2019-03-02T12:05:44.096Z,7.20
2019-03-02T12:08:28.287Z,8.03
2019-03-02T12:11:12.542Z,6.30
2019-03-02T12:13:58.337Z,7.03
2019-03-02T12:16:33.317Z,7.43
2019-03-02T12:19:21.619Z,8.50
2019-03-02T12:22:06.788Z,7.30
2019-03-02T12:24:54.675Z,7.50
2019-03-02T12:27:46.473Z,7.90
2019-03-02T12:30:26.176Z,7.77
2019-03-02T12:33:17.100Z,8.10
2019-03-02T12:35:55.835Z,7.60
2019-03-02T12:38:44.555Z,8.40
2019-03-02T12:41:48.834Z,8.77
2019-03-02T12:44:44.839Z,8.50
2019-03-02T12:47:33.324Z,9.07
2019-03-02T12:50:23.104Z,8.33
2019-03-02T12:53:00.042Z,8.87
2019-03-02T12:55:47.148Z,9.07
2019-03-02T12:58:50.640Z,8.70
2019-03-02T13:01:33.914Z,8.93
2019-03-02T13:04:19.428Z,10.40
2019-03-02T13:07:00.122Z,9.33
2019-03-02T13:09:46.976Z,8.73
2019-03-02T13:12:53.377Z,8.20
2019-03-02T13:15:54.375Z,9.07
2019-03-02T13:18:32.036Z,9.20
2019-03-02T13:21:23.178Z,9.63
2019-03-02T13:24:10.949Z,7.90
2019-03-02T13:26:48.893Z,9.27
2019-03-02T13:29:27.326Z,8.50
2019-03-02T13:32:24.293Z,8.70
2019-03-02T13:35:12.044Z,9.10
2019-03-02T13:38:00.792Z,9.43
2019-03-02T13:40:37.829Z,9.27
2019-03-02T13:43:38.130Z,11.17
2019-03-02T13:46:34.801Z,10.23
2019-03-02T13:49:20.771Z,11.57
2019-03-02T13:52:19.580Z,10.27
2019-03-02T13:54:55.873Z,11.17
2019-03-02T13:57:37.910Z,11.77
2019-03-02T14:00:18.203Z,10.30
2019-03-02T14:03:18.517Z,11.37
2019-03-02T14:06:07.403Z,10.70
2019-03-02T14:08:49.621Z,9.20
2019-03-02T14:11:39.620Z,10.37
2019-03-02T14:14:26.410Z,10.17
2019-03-02T14:17:11.933Z,9.53
2019-03-02T14:19:49.054Z,10.90
2019-03-02T14:22:40.063Z,12.77
2019-03-02T14:25:31.077Z,10.33
2019-03-02T14:28:19.094Z,10.60
2019-03-02T14:31:02.536Z,9.77
2019-03-02T14:33:50.668Z,11.60
2019-03-02T14:36:41.677Z,11.37
2019-03-02T14:39:46.372Z,11.73
2019-03-02T14:42:33.160Z,11.50
2019-03-02T14:45:24.011Z,11.97
2019-03-02T14:48:13.709Z,11.00
2019-03-02T14:50:55.172Z,11.97
2019-03-02T14:53:45.068Z,11.33
2019-03-02T14:56:22.402Z,10.43
2019-03-02T14:59:10.231Z,11.00
2019-03-02T15:01:58.182Z,12.23
2019-03-02T15:04:56.566Z,10.70
2019-03-02T15:07:42.638Z,12.33
2019-03-02T15:10:38.500Z,12.73
2019-03-02T15:13:34.695Z,11.70
2019-03-02T15:16:10.329Z,10.40
2019-03-02T15:19:02.222Z,11.40
2019-03-02T15:21:51.703Z,10.60
2019-03-02T15:24:54.842Z,11.50
2019-03-02T15:27:28.737Z,11.80
2019-03-02T15:30:29.208Z,13.00
2019-03-02T15:33:26.296Z,12.53
2019-03-02T15:36:11.065Z,12.27
2019-03-02T15:39:01.463Z,11.97
2019-03-02T15:41:35.828Z,12.00
2019-03-02T15:44:17.626Z,10.80
2019-03-02T15:47:06.025Z,12.83
2019-03-02T15:49:44.843Z,10.23
2019-03-02T15:52:25.027Z,11.30
2019-03-02T15:55:16.161Z,13.40
2019-03-02T15:58:23.266Z,12.43
2019-03-02T16:01:23.153Z,12.70
2019-03-02T16:04:12.411Z,11.67
2019-03-02T16:07:18.934Z,12.40
2019-03-02T16:10:11.613Z,12.90
2019-03-02T16:13:11.813Z,10.40
2019-03-02T16:16:01.255Z,9.87
2019-03-02T16:18:38.569Z,12.00
2019-03-02T16:21:25.646Z,11.30
2019-03-02T16:24:06.400Z,12.43
2019-03-02T16:26:52.980Z,11.13
2019-03-02T16:29:52.607Z,10.97
2019-03-02T16:32:47.166Z,12.47
2019-03-02T16:35:44.840Z,10.80
2019-03-02T16:38:38.645Z,12.30
2019-03-02T16:41:18.046Z,11.33
2019-03-02T16:43:55.324Z,11.70
2019-03-02T16:46:35.044Z,12.00
2019-03-02T16:49:20.730Z,12.87
2019-03-02T16:52:28.368Z,16.27
2019-03-02T16:55:28.897Z,17.30
2019-03-02T16:58:02.716Z,17.10
2019-03-02T17:00:42.350Z,16.37
2019-03-02T17:03:24.307Z,16.53
2019-03-02T17:06:18.105Z,16.87
2019-03-02T17:09:18.199Z,17.00
2019-03-02T17:12:03.708Z,17.20
2019-03-02T17:15:10.026Z,18.57
2019-03-02T17:17:58.028Z,17.70
2019-03-02T17:20:43.365Z,18.30
2019-03-02T17:23:42.559Z,18.50
2019-03-02T17:26:20.211Z,18.33
2019-03-02T17:29:14.446Z,18.43
2019-03-02T17:31:53.219Z,17.80
2019-03-02T17:34:54.138Z,18.20
2019-03-02T17:37:34.866Z,18.37
2019-03-02T17:40:22.273Z,17.93
2019-03-02T17:43:03.670Z,19.03
2019-03-02T17:46:02.839Z,21.17
2019-03-02T17:48:55.184Z,16.23
2019-03-02T17:51:36.029Z,15.67
2019-03-02T17:54:19.347Z,17.80
2019-03-02T17:57:02.882Z,17.93
2019-03-02T17:59:51.190Z,19.87
2019-03-02T18:02:34.503Z,17.90
2019-03-02T18:05:31.823Z,18.10
2019-03-02T18:08:13.803Z,16.40
2019-03-02T18:11:02.383Z,16.77
2019-03-02T18:13:53.629Z,17.00
2019-03-02T18:16:42.619Z,15.70
2019-03-02T18:19:11.104Z,18.23
2019-03-02T18:21:39.840Z,17.33
2019-03-02T18:24:08.385Z,16.77
2019-03-02T18:26:36.971Z,17.77
2019-03-02T18:29:05.433Z,16.50
2019-03-02T18:31:33.956Z,17.40
2019-03-02T18:34:13.309Z,17.17
2019-03-02T18:36:45.884Z,15.40
2019-03-02T18:39:12.327Z,15.60
2019-03-02T18:41:41.197Z,17.13
2019-03-02T18:44:09.767Z,16.77
2019-03-02T18:46:38.210Z,20.73
2019-03-02T18:49:19.375Z,16.73
2019-03-02T18:52:21.248Z,17.67
2019-03-02T18:54:51.215Z,15.90
2019-03-02T18:57:19.765Z,18.20
2019-03-02T18:59:48.210Z,18.03
2019-03-02T19:02:16.773Z,18.33
2019-03-02T19:04:47.825Z,17.63
2019-03-02T19:07:16.382Z,17.40
2019-03-02T19:09:44.873Z,16.90
2019-03-02T19:12:13.894Z,16.17
2019-03-02T19:14:42.975Z,19.00
2019-03-02T19:17:11.708Z,16.57
2019-03-02T19:19:40.304Z,17.30
2019-03-02T19:22:11.936Z,17.93
2019-03-02T19:24:40.618Z,17.43
2019-03-02T19:27:09.259Z,17.53
2019-03-02T19:29:37.939Z,16.23
2019-03-02T19:32:06.806Z,17.30
2019-03-02T19:34:35.339Z,16.97
2019-03-02T19:37:04.052Z,17.10
2019-03-02T19:39:32.517Z,17.93
2019-03-02T19:42:01.366Z,17.97
2019-03-02T19:44:31.364Z,18.63
2019-03-02T19:47:01.734Z,19.40
2019-03-02T19:49:30.355Z,18.23
2019-03-02T19:52:05.077Z,16.90
2019-03-02T19:54:36.524Z,17.83
2019-03-02T19:57:05.086Z,16.30
2019-03-02T19:59:33.526Z,16.23
2019-03-02T20:02:03.406Z,16.77
2019-03-02T20:04:32.275Z,16.63
2019-03-02T20:07:01.144Z,16.63
2019-03-02T20:09:29.734Z,17.40
2019-03-02T20:11:58.714Z,15.93
2019-03-02T20:14:28.291Z,18.17
2019-03-02T20:16:56.752Z,17.20
2019-03-02T20:19:25.294Z,16.50
2019-03-02T20:22:00.860Z,18.83
2019-03-02T20:24:30.035Z,17.10
2019-03-02T20:26:58.648Z,15.40
2019-03-02T20:29:27.767Z,17.67
2019-03-02T20:31:57.655Z,16.33
2019-03-02T20:34:26.798Z,17.93
2019-03-02T20:36:55.423Z,16.80
2019-03-02T20:39:23.965Z,15.33
2019-03-02T20:41:53.261Z,15.70
2019-03-02T20:44:21.931Z,15.67
2019-03-02T20:46:50.453Z,16.43
2019-03-02T20:49:18.972Z,15.47
2019-03-02T20:51:47.753Z,16.60
2019-03-02T20:54:16.235Z,16.50
2019-03-02T20:56:44.703Z,17.20
2019-03-02T20:59:13.409Z,19.37
2019-03-02T21:01:42.006Z,16.43
2019-03-02T21:04:11.311Z,17.63
2019-03-02T21:06:40.131Z,19.17
2019-03-02T21:09:08.760Z,18.63
2019-03-02T21:11:37.298Z,16.43
2019-03-02T21:14:05.887Z,16.07
2019-03-02T21:16:36.549Z,19.33
2019-03-02T21:19:05.200Z,21.07
2019-03-02T21:21:34.167Z,18.00
2019-03-02T21:24:02.798Z,21.03
2019-03-02T21:26:31.327Z,18.43
2019-03-02T21:29:00.119Z,20.47
2019-03-02T21:31:31.007Z,16.80
2019-03-02T21:33:59.509Z,16.60
2019-03-02T21:36:28.032Z,16.60
2019-03-02T21:38:56.537Z,16.77
2019-03-02T21:41:27.477Z,15.93
2019-03-02T21:43:55.883Z,19.43
2019-03-02T21:46:24.383Z,18.90
2019-03-02T21:48:53.199Z,19.00
2019-03-02T21:51:23.126Z,18.07
2019-03-02T21:53:51.823Z,18.90
2019-03-02T21:56:20.690Z,17.87
2019-03-02T21:58:49.172Z,18.23
2019-03-02T22:01:17.578Z,17.70
2019-03-02T22:03:46.096Z,17.10
2019-03-02T22:06:14.891Z,16.57
2019-03-02T22:08:43.380Z,19.40
2019-03-02T22:11:12.797Z,21.00
2019-03-02T22:13:41.311Z,21.10
2019-03-02T22:16:09.715Z,20.50
2019-03-02T22:18:38.107Z,21.30
2019-03-02T22:21:06.515Z,24.17
2019-03-02T22:23:34.902Z,23.03
2019-03-02T22:26:03.330Z,23.50
2019-03-02T22:28:32.223Z,22.13
2019-03-02T22:31:01.877Z,23.80
2019-03-02T22:33:30.564Z,24.87
2019-03-02T22:35:59.070Z,24.40
2019-03-02T22:38:27.667Z,25.63
2019-03-02T22:40:57.762Z,25.67
2019-03-02T22:43:26.287Z,24.60
2019-03-02T22:45:54.878Z,23.13
2019-03-02T22:48:23.480Z,22.40
2019-03-02T22:50:51.963Z,22.27
2019-03-02T22:53:21.788Z,21.50
2019-03-02T22:55:50.414Z,24.90
2019-03-02T22:58:18.794Z,23.93
2019-03-02T23:01:43.695Z,22.87
2019-03-02T23:04:12.172Z,22.80
2019-03-02T23:06:40.588Z,21.10
2019-03-02T23:09:10.772Z,21.27
2019-03-02T23:11:39.256Z,22.93
2019-03-02T23:14:07.669Z,23.90
2019-03-02T23:16:36.757Z,20.37
2019-03-02T23:19:05.275Z,22.00
2019-03-02T23:21:33.714Z,20.63
2019-03-02T23:24:02.310Z,19.50
2019-03-02T23:26:30.805Z,18.40
2019-03-02T23:29:00.490Z,19.37
2019-03-02T23:31:28.986Z,19.63
2019-03-02T23:33:57.973Z,18.43
2019-03-02T23:36:26.388Z,20.07
2019-03-02T23:38:54.794Z,17.80
2019-03-02T23:41:23.238Z,19.07
2019-03-02T23:43:53.475Z,18.03
2019-03-02T23:46:21.868Z,18.60
2019-03-02T23:48:50.456Z,17.17
2019-03-02T23:51:18.960Z,18.67
2019-03-02T23:53:47.447Z,18.23
2019-03-02T23:56:15.834Z,17.40
2019-03-02T23:58:44.234Z,19.03
